Tiempo atmosférico en la estación meteorológica de Astorga, León (919 m.)



Fecha
DESCASC
Temp. máxima en grados centígrados (hora)
DESCASC
Temp. mínima en grados centígrados (hora)
DESCASC
Temp. media en grados centígrados
DESCASC
Racha de viento máxima en m/sg (hora)
DESCASC
Velocidad máxima media en intervalos de 10 minutos(hora)
DESCASC
Precipitaciones diarias en mm
DESCASC
Precipitaciones de 00:00 a 06:00 en mm
DESCASC
Precipitaciones de 06:00 a 12:00 en mm
DESCASC
Precipitaciones de 12:00 a 18:00 en mm
DESCASC
Precipitaciones de 18:00 a 24:00 en mm
DESCASC
13-10-2019 19.7 (18:00) 11.9 (07:40) 15.8 16.11 (15:10) 11.67 (15:10) 0 0 0 0 0
12-10-2019 25.2 (17:00) 12.2 (08:30) 18.7 18.89 (18:00) 12.22 (13:20) 0 0 0 0 0
11-10-2019 27 (16:20) 4.9 (08:20) 16 12.5 (16:40) 8.61 (16:40) 0 0 0 0 0
10-10-2019 22.7 (17:40) 3.7 (00:00) 13.2 5.28 (16:10) 3.06 (17:20) 0 0 0 0 0
09-10-2019 22 (16:20) 5.9 (00:00) 14 9.17 (02:40) 6.39 (02:40) 0 0 0 0 0
08-10-2019 27.1 (15:30) 10.7 (00:00) 18.9 11.11 (19:00) 6.94 (18:10) 0 0 0 0 0
07-10-2019 30.3 (17:10) 8.2 (00:00) 19.2 8.89 (16:30) 3.61 (16:30) 0 0 0 0 0
06-10-2019 26 (15:30) 8.6 (00:00) 17.3 9.72 (16:30) 5.56 (15:40) 0 0 0 0 0
05-10-2019 27.1 (17:30) 7.1 (00:00) 17.1 7.78 (23:30) 5 (23:59) 0 0 0 0 0
04-10-2019 26.8 (16:00) 10.7 (00:00) 18.7 7.22 (17:10) 4.17 (16:50) 0 0 0 0 0
03-10-2019 26.7 (16:50) 4.4 (00:00) 15.6 9.72 (18:10) 5.56 (18:50) 0 0 0 0 0
02-10-2019 23.8 (18:00) 7 (00:00) 15.4 7.22 (13:10) 3.89 (11:00) 0 0 0 0 0
01-10-2019 21.7 (16:50) 12 (00:00) 16.9 11.67 (14:50) 7.22 (15:10) 0 0 0 0 0
30-09-2019 28.2 (17:50) 12.1 (00:00) 20.2 8.06 (18:10) 4.72 (18:20) 0 0 0 0 0
29-09-2019 27.4 (15:30) 7.7 (00:00) 17.5 10.56 (14:40) 6.67 (18:10) 0 0 0 0 0
28-09-2019 26.6 (18:20) 5.2 (00:00) 15.9 6.39 (00:50) 4.17 (00:40) 0 0 0 0 0
27-09-2019 22 (14:10) 8.6 (00:00) 15.3 11.94 (16:50) 7.5 (16:50) 0 0 0 0 0
26-09-2019 26.9 (16:30) 7.9 (00:00) 17.4 10 (18:40) 5.56 (18:40) 0 0 0 0 0
25-09-2019 21.8 (16:10) 10.1 (00:00) 15.9 10 (14:30) 6.39 (16:30) 0 0 0 0 0
24-09-2019 22.6 (16:10) 9.4 (00:00) 16 10.83 (17:10) 6.67 (17:40) 0 0 0 0 0
23-09-2019 20.6 (17:20) 8.3 (00:00) 14.5 6.94 (18:40) 5.28 (19:00) 0 0 0 0 0
22-09-2019 20.6 (17:40) 8.3 (00:00) 14.5 8.61 (13:00) 5 (15:50) 0.4 0.4 0 0 0
21-09-2019 17.1 (00:00) 12.2 (00:00) 14.7 13.89 (17:00) 9.44 (19:00) 3.8 0 1.8 0.2 1.8
20-09-2019 25.6 (18:00) 11.2 (00:00) 18.4 11.94 (18:30) 8.61 (18:20) 0 0 0 0 0
19-09-2019 26.5 (17:20) 11.2 (00:00) 18.8 6.67 (16:10) 4.17 (16:10) 0 0 0 0 0
18-09-2019 27.2 (17:40) 10.4 (00:00) 18.8 5.83 (08:50) 3.33 (00:10) 7.6 7.6 0 0 0
17-09-2019 26.4 (16:50) 15.2 (00:00) 20.8 9.72 (17:10) 5.83 (18:20) 0.4 0 0 0 0.4

Gráficas

Temp. máximas Temp. mínimas Temp. medias Precipitaciones Rachas de viento máximas Velocidades máximas media en intervalos de 10 minutos

Datos horarios

Fecha y hora oficial Temperatura (ºC) Velocidad del viento (km/h) Dirección del viento Racha (km/h) Dirección de racha Precipitación (mm) Presión (hPa) Tendencia (hPa) Humedad (%)
2019-10-16 23:00:00 10.7 19 Sur 31 Sur 0.2 -- -- 95
2019-10-16 22:00:00 10.8 19 Sur 33 Sur 0.2 -- -- 93
2019-10-16 21:00:00 11.2 22 Sur 30 Sur 0 -- -- 89
2019-10-16 20:00:00 11.3 16 Sur 40 Sudoeste 0.2 -- -- 88
2019-10-16 19:00:00 12.9 19 Sudoeste 39 Sur 0 -- -- 77
2019-10-16 18:00:00 13.8 19 Sur 34 Sur 0 -- -- 74
2019-10-16 17:00:00 13.2 19 Sur 33 Sur 0 -- -- 77
2019-10-16 16:00:00 14.3 8 Sur 15 Sur 0 -- -- 71
2019-10-16 15:00:00 13.8 13 Sudoeste 26 Sur 0 -- -- 74
2019-10-16 14:00:00 15.2 15 Sur 28 Sur 0 -- -- 69
2019-10-16 13:00:00 15.7 9 Sudeste 17 Sudeste 0 -- -- 66
2019-10-16 12:00:00 15.3 2 Sur 15 Sudoeste 0 -- -- 70
2019-10-16 11:00:00 13.2 4 Norte 12 Norte 0 -- -- 79
2019-10-16 10:00:00 8.6 8 Norte 14 Norte 0 -- -- 98
2019-10-16 09:00:00 8 5 Nordeste 13 Norte 0 -- -- 98
2019-10-16 08:00:00 8.2 8 Norte 12 Norte 0 -- -- 98
2019-10-16 07:00:00 8.1 6 Noroeste 8 Noroeste 0 -- -- 98
2019-10-16 06:00:00 8.1 6 Norte 8 Nordeste 0 -- -- 97
2019-10-16 05:00:00 8.2 6 Norte 9 Norte 0 -- -- 97
2019-10-16 04:00:00 8.2 4 Norte 6 Norte 0 -- -- 97
2019-10-16 03:00:00 8 5 Norte 10 Norte 0 -- -- 97
2019-10-16 02:00:00 7.8 7 Norte 9 Norte 0 -- -- 96
2019-10-16 01:00:00 8.3 4 Norte 6 Noroeste 0.2 -- -- 94
2019-10-16 00:00:00 9.1 5 Sur 11 Sudoeste 0 -- -- 89
2019-10-15 23:00:00 9.1 6 Sur 14 Sudoeste 0 -- -- 90
2019-10-15 22:00:00 9.1 8 Sur 17 Sur 0 -- -- 90
2019-10-15 21:00:00 9.3 6 Sur 10 Sur 0 -- -- 89
2019-10-15 20:00:00 9.5 6 Oeste 13 Sudoeste 0.2 -- -- 89
2019-10-15 19:00:00 9.7 6 Sudoeste 26 Sur 0.6 -- -- 88
2019-10-15 18:00:00 11.1 12 Sudoeste 19 Sudoeste 0 -- -- 76
2019-10-15 17:00:00 12.6 4 Nordeste 19 Sur 0 -- -- 63
2019-10-15 16:00:00 13 4 Sudeste 13 Sudeste 0 -- -- 59
2019-10-15 15:00:00 13.4 8 Sudeste 22 Sudeste 0 -- -- 55
2019-10-15 14:00:00 12.5 12 Sudeste 22 Sudeste 0 -- -- 61
2019-10-15 13:00:00 12.8 8 Noroeste 19 Sudoeste 0 -- -- 58
2019-10-15 12:00:00 12.5 7 Sur 17 Oeste 0 -- -- 59
2019-10-15 11:00:00 9.5 9 Oeste 20 Oeste 0 -- -- 70
2019-10-15 10:00:00 9.9 5 Sudeste 12 Noroeste 0 -- -- 69
2019-10-15 09:00:00 6.3 9 Noroeste 17 Noroeste 0 -- -- 87
2019-10-15 08:00:00 6.5 9 Oeste 17 Oeste 0 -- -- 82
2019-10-15 07:00:00 5.9 7 Oeste 12 Oeste 0 -- -- 81
2019-10-15 06:00:00 6.2 6 Sudoeste 16 Sudoeste 0 -- -- 80
2019-10-15 05:00:00 6 7 Sudoeste 15 Sudoeste 0 -- -- 86
2019-10-15 04:00:00 5.4 4 Oeste 19 Oeste 0 -- -- 87
2019-10-15 03:00:00 5.9 9 Oeste 27 Oeste 0 -- -- 85
2019-10-15 02:00:00 5.8 13 Noroeste 30 Noroeste 0 -- -- 84
2019-10-15 01:00:00 5.9 18 Noroeste 40 Oeste 0 -- -- 83
2019-10-15 00:00:00 6.1 19 Noroeste 41 Oeste 0 -- -- 81
2019-10-14 23:00:00 6 8 Sudoeste 26 Oeste 0 -- -- 81
2019-10-14 22:00:00 5.9 14 Oeste 30 Noroeste 0 -- -- 84
2019-10-14 21:00:00 5.9 10 Oeste 26 Oeste 0 -- -- 84
2019-10-14 20:00:00 6.4 11 Noroeste 35 Oeste 0.2 -- -- 81
2019-10-14 19:00:00 7.5 19 Oeste 39 Oeste 0.2 -- -- 83
2019-10-14 18:00:00 10.9 20 Oeste 38 Oeste 0 -- -- 68
2019-10-14 17:00:00 9.7 21 Noroeste 45 Norte 0 -- -- 72
2019-10-14 16:00:00 12 6 Sudoeste 20 Noroeste 0 -- -- 78
2019-10-14 15:00:00 11.4 10 Sur 22 Sudoeste 0 -- -- 83
2019-10-14 14:00:00 10.1 7 Sur 22 Sur 0.4 -- -- 89
2019-10-14 13:00:00 9.3 16 Sudoeste 37 Sudoeste 0.4 -- -- 92
2019-10-14 12:00:00 10.1 4 Sudeste 13 Sudeste 0 -- -- 88
2019-10-14 11:00:00 10.1 5 Sudeste 13 Norte 0.2 -- -- 88
2019-10-14 10:00:00 7.8 7 Nordeste 14 Este 1.4 -- -- 96
2019-10-14 09:00:00 7.7 8 Noroeste 25 Noroeste 4.2 -- -- 94
2019-10-14 08:00:00 7.8 15 Noroeste 33 Noroeste 3.2 -- -- 91
2019-10-14 07:00:00 10.3 10 Noroeste 21 Noroeste 0 -- -- 84
2019-10-14 06:00:00 11.6 5 Norte 25 Sur 0 -- -- 82
2019-10-14 05:00:00 11.6 8 Sudeste 13 Sudeste 0 -- -- 83
2019-10-14 04:00:00 11.3 9 Sudeste 17 Este 0 -- -- 83
2019-10-14 03:00:00 11.8 9 Este 18 Sudeste 0 -- -- 81
2019-10-14 02:00:00 13.1 6 Este 18 Sudeste 0 -- -- 74
2019-10-14 01:00:00 13.4 12 Sudeste 26 Sur 0 -- -- 71
2019-10-14 00:00:00 13.9 24 Sur 41 Sur 0 -- -- 71
2019-10-13 23:00:00 14.6 31 Sur 48 Sur 0 -- -- 68
2019-10-13 22:00:00 15.5 26 Sur 36 Sur 0 -- -- 63
2019-10-13 21:00:00 15.8 8 Este 21 Sudeste 0 -- -- 60
2019-10-13 20:00:00 17 7 Sudeste 27 Sudoeste 0 -- -- 59
2019-10-13 19:00:00 17.8 21 Sur 33 Sur 0 -- -- 59
2019-10-13 18:00:00 19.7 21 Sur 48 Sur 0 -- -- 57
2019-10-13 17:00:00 17.6 22 Sur 36 Sur 0 -- -- 67
2019-10-13 16:00:00 16 24 Sudoeste 58 Sur 0 -- -- 74
2019-10-13 15:00:00 15.5 35 Sur 49 Sudoeste 0 -- -- 76
2019-10-13 14:00:00 15.6 32 Sur 45 Sur 0 -- -- 73
2019-10-13 13:00:00 14.7 24 Sur 45 Sur 0 -- -- 77
2019-10-13 12:00:00 14.3 32 Sur 46 Sur 0 -- -- 77
2019-10-13 11:00:00 14.2 32 Sur 51 Sur 0 -- -- 78
2019-10-13 10:00:00 13.8 31 Sur 43 Sur 0 -- -- 80
2019-10-13 09:00:00 13.2 14 Sudoeste 38 Sudoeste 0 -- -- 74
2019-10-13 08:00:00 12.1 16 Sur 33 Sur 0 -- -- 77
2019-10-13 07:00:00 12.2 24 Sur 48 Sur 0 -- -- 79
2019-10-13 06:00:00 13 29 Sur 44 Sur 0 -- -- 77
2019-10-13 05:00:00 13 24 Sur 42 Sur 0 -- -- 81
2019-10-13 04:00:00 13.9 26 Sur 45 Sur 0 -- -- 77
2019-10-13 03:00:00 14.7 30 Sudoeste 46 Sudoeste 0 -- -- 69
2019-10-13 02:00:00 16.2 16 Sur 28 Sur 0 -- -- 64
2019-10-13 01:00:00 17 8 Sur 32 Sur 0 -- -- 67
2019-10-13 00:00:00 17.6 18 Sur 41 Sur 0 -- -- 68
2019-10-12 23:00:00 18 23 Sur 32 Sudoeste 0 -- -- 64
2019-10-12 22:00:00 18.9 10 Sur 24 Sur 0 -- -- 54
2019-10-12 21:00:00 19.9 9 Sur 37 Sudoeste 0 -- -- 51
2019-10-12 20:00:00 21.4 25 Sur 57 Sur 0 -- -- 47
2019-10-12 19:00:00 22.8 40 Sudoeste 66 Sudoeste 0 -- -- 41
2019-10-12 18:00:00 24.4 37 Sudoeste 68 Sudoeste 0 -- -- 37
2019-10-12 17:00:00 25.2 31 Sudoeste 54 Sur 0 -- -- 38
2019-10-12 16:00:00 24.6 28 Sudoeste 59 Sur 0 -- -- 40
2019-10-12 15:00:00 23.4 32 Sur 55 Sur 0 -- -- 45
2019-10-12 14:00:00 22.6 34 Sur 62 Sur 0 -- -- 47
2019-10-12 13:00:00 21.1 37 Sur 51 Sur 0 -- -- 55
2019-10-12 12:00:00 21.8 27 Sur 43 Sur 0 -- -- 47
2019-10-12 11:00:00 15.3 5 Nordeste 13 Sur 0 -- -- 75
2019-10-12 10:00:00 13.8 3 Nordeste 12 Sur 0 -- -- 74
2019-10-12 09:00:00 12.8 6 Nordeste 14 Sudeste 0 -- -- 78
2019-10-12 08:00:00 14.1 9 Este 19 Sudeste 0 -- -- 72
2019-10-12 07:00:00 14 8 Sudeste 14 Sudeste 0 -- -- 74
2019-10-12 06:00:00 13.5 3 Este 12 Noroeste 0 -- -- 76
2019-10-12 05:00:00 13.9 5 Norte 10 Este 0 -- -- 71
2019-10-12 04:00:00 14.6 4 Este 14 Sudoeste 0 -- -- 69
2019-10-12 03:00:00 13.9 5 Norte 11 Sudeste 0 -- -- 70
2019-10-12 02:00:00 14.1 4 Norte 12 Norte 0 -- -- 69
2019-10-12 01:00:00 14.9 4 Norte 9 Norte 0 -- -- 64
2019-10-12 00:00:00 14.6 8 Norte 10 Norte 0 -- -- 64
2019-10-11 23:00:00 16.4 4 Sur 9 Sur 0 -- -- 57
2019-10-11 22:00:00 19 3 Noroeste 15 Oeste 0 -- -- 50
2019-10-11 21:00:00 20.8 9 Oeste 18 Sudoeste 0 -- -- 46
2019-10-11 20:00:00 21.9 11 Sudoeste 29 Sudoeste 0 -- -- 44
2019-10-11 19:00:00 24.7 18 Sudoeste 35 Sudoeste 0 -- -- 38
2019-10-11 18:00:00 26.1 18 Sudoeste 43 Sur 0 -- -- 36
2019-10-11 17:00:00 26.5 27 Sudoeste 45 Sur 0 -- -- 35
2019-10-11 16:00:00 26.9 25 Sudoeste 44 Sudoeste 0 -- -- 35
2019-10-11 15:00:00 25.4 8 Sudeste 17 Sur 0 -- -- 33
2019-10-11 14:00:00 23 6 Sur 17 Sur 0 -- -- 37
2019-10-11 13:00:00 20.6 8 Sur 16 Sur 0 -- -- 40
2019-10-11 12:00:00 20.1 5 Sudeste 11 Sur 0 -- -- 41
2019-10-11 11:00:00 18.1 3 Nordeste 6 Este 0 -- -- 45
2019-10-11 10:00:00 11.7 3 Norte 5 Nordeste 0 -- -- 64
2019-10-11 09:00:00 5.8 0 Calma 6 Norte 0 -- -- 83
2019-10-11 08:00:00 6.6 3 Sur 8 Norte 0 -- -- 76
2019-10-11 07:00:00 5.5 7 Norte 10 Norte 0 -- -- 83
2019-10-11 06:00:00 5.8 5 Norte 7 Norte 0 -- -- 78
2019-10-11 05:00:00 6.9 2 Noroeste 6 Norte 0 -- -- 77
2019-10-11 04:00:00 7.9 3 Oeste 6 Norte 0 -- -- 72
2019-10-11 03:00:00 7.8 2 Sur 6 Nordeste 0 -- -- 72
2019-10-11 02:00:00 10.2 0 Calma 9 Norte 0 -- -- 64
2019-10-11 01:00:00 10.4 4 Norte 11 Norte 0 -- -- 63
2019-10-11 00:00:00 8 8 Norte 11 Norte 0 -- -- 70
2019-10-10 23:00:00 11.9 4 Noroeste 6 Norte 0 -- -- 58
2019-10-10 22:00:00 14.3 2 Oeste 6 Sudeste 0 -- -- 52
2019-10-10 21:00:00 16.9 5 Sudeste 10 Sudeste 0 -- -- 45
2019-10-10 20:00:00 17.9 6 Sudeste 11 Sudeste 0 -- -- 43
2019-10-10 19:00:00 21.8 7 Sudeste 15 Sudeste 0 -- -- 36
2019-10-10 18:00:00 22 10 Sudeste 19 Sur 0 -- -- 35
2019-10-10 17:00:00 22.4 7 Sudeste 19 Sudeste 0 -- -- 34
2019-10-10 16:00:00 21.6 7 Sur 15 Sudeste 0 -- -- 36
2019-10-10 15:00:00 19.9 8 Sur 17 Sur 0 -- -- 40
2019-10-10 14:00:00 18.5 9 Sur 17 Sur 0 -- -- 47
2019-10-10 13:00:00 17.5 6 Sur 13 Sur 0 -- -- 51
2019-10-10 12:00:00 15.9 7 Sur 12 Sur 0 -- -- 55
2019-10-10 11:00:00 14.7 3 Sur 7 Norte 0 -- -- 59
2019-10-10 10:00:00 9.1 6 Nordeste 8 Nordeste 0 -- -- 76
2019-10-10 09:00:00 4.2 3 Noroeste 9 Norte 0 -- -- 94
2019-10-10 08:00:00 4.3 0 Calma 6 Norte 0 -- -- 94
2019-10-10 07:00:00 4 4 Norte 6 Norte 0 -- -- 87
2019-10-10 06:00:00 5.3 5 Nordeste 6 Nordeste 0 -- -- 86
2019-10-10 05:00:00 5.7 5 Norte 8 Norte 0 -- -- 86
2019-10-10 04:00:00 5.6 8 Norte 10 Noroeste 0 -- -- 87
2019-10-10 03:00:00 6.6 3 Oeste 10 Sudoeste 0 -- -- 82
2019-10-10 02:00:00 8.1 5 Oeste 12 Oeste 0 -- -- 75
2019-10-10 01:00:00 8.7 4 Noroeste 6 Norte 0 -- -- 76
2019-10-10 00:00:00 9.7 3 Sur 10 Nordeste 0 -- -- 71
2019-10-09 23:00:00 10.7 5 Noroeste 8 Norte 0 -- -- 65
2019-10-09 22:00:00 11.2 6 Norte 9 Norte 0 -- -- 64
2019-10-09 21:00:00 12.7 4 Norte 16 Noroeste 0 -- -- 58
2019-10-09 20:00:00 14.6 9 Noroeste 26 Noroeste 0 -- -- 52
2019-10-09 19:00:00 18.3 18 Noroeste 29 Noroeste 0 -- -- 41
2019-10-09 18:00:00 20.5 17 Noroeste 28 Norte 0 -- -- 35
2019-10-09 17:00:00 21.7 20 Norte 30 Norte 0 -- -- 32
2019-10-09 16:00:00 21.6 14 Norte 28 Norte 0 -- -- 32
2019-10-09 15:00:00 20.3 15 Norte 26 Norte 0 -- -- 34
2019-10-09 14:00:00 19.9 8 Norte 22 Noroeste 0 -- -- 32
2019-10-09 13:00:00 18 9 Norte 30 Norte 0 -- -- 36
2019-10-09 12:00:00 16.7 13 Norte 27 Norte 0 -- -- 43
2019-10-09 11:00:00 14.9 3 Sur 10 Nordeste 0 -- -- 50
2019-10-09 10:00:00 10.7 7 Nordeste 13 Nordeste 0 -- -- 70
2019-10-09 09:00:00 5.9 7 Norte 11 Nordeste 0 -- -- 91
2019-10-09 08:00:00 6.7 6 Nordeste 10 Nordeste 0 -- -- 87
2019-10-09 07:00:00 8.2 5 Oeste 14 Noroeste 0 -- -- 80
2019-10-09 06:00:00 9.2 8 Noroeste 26 Noroeste 0 -- -- 78
2019-10-09 05:00:00 10.3 19 Noroeste 27 Noroeste 0 -- -- 78
2019-10-09 04:00:00 11.1 10 Noroeste 27 Noroeste 0 -- -- 79
2019-10-09 03:00:00 11.9 13 Noroeste 33 Noroeste 0 -- -- 85
2019-10-09 02:00:00 13.1 13 Oeste 25 Noroeste 0 -- -- 86
2019-10-09 01:00:00 13.4 12 Noroeste 28 Noroeste 0 -- -- 85
2019-10-09 00:00:00 14.6 4 Nordeste 13 Norte 0 -- -- 84
2019-10-08 23:00:00 15.7 8 Oeste 16 Noroeste 0 -- -- 83
2019-10-08 22:00:00 16.5 9 Noroeste 16 Noroeste 0 -- -- 81
2019-10-08 21:00:00 17.1 12 Noroeste 35 Noroeste 0 -- -- 78
2019-10-08 20:00:00 19.5 15 Noroeste 39 Oeste 0 -- -- 66
2019-10-08 19:00:00 22.2 19 Noroeste 40 Noroeste 0 -- -- 54
2019-10-08 18:00:00 24.6 16 Noroeste 36 Noroeste 0 -- -- 47
2019-10-08 17:00:00 25.2 21 Noroeste 34 Noroeste 0 -- -- 46
2019-10-08 16:00:00 26.6 17 Noroeste 33 Noroeste 0 -- -- 45
2019-10-08 15:00:00 26.5 8 Noroeste 29 Oeste 0 -- -- 44
2019-10-08 14:00:00 25.8 8 Noroeste 26 Norte 0 -- -- 44
2019-10-08 13:00:00 24.4 14 Norte 28 Norte 0 -- -- 47
2019-10-08 12:00:00 23.1 6 Este 11 Este 0 -- -- 44
2019-10-08 11:00:00 20.1 5 Sur 8 Sudeste 0 -- -- 45
2019-10-08 10:00:00 16.3 4 Nordeste 10 Noroeste 0 -- -- 57
2019-10-08 09:00:00 11.5 3 Norte 10 Norte 0 -- -- 69
2019-10-08 08:00:00 10.9 6 Norte 10 Norte 0 -- -- 71
2019-10-08 07:00:00 12 2 Oeste 12 Noroeste 0 -- -- 66
2019-10-08 06:00:00 11.1 9 Norte 11 Norte 0 -- -- 69
2019-10-08 05:00:00 11.6 6 Norte 9 Noroeste 0 -- -- 68
2019-10-08 04:00:00 12.3 2 Oeste 6 Norte 0 -- -- 65
2019-10-08 03:00:00 12.4 3 Nordeste 13 Norte 0 -- -- 64
2019-10-08 02:00:00 13.9 3 Sur 13 Norte 0 -- -- 59
2019-10-08 01:00:00 12.9 6 Norte 11 Norte 0 -- -- 63
2019-10-08 00:00:00 15.9 3 Nordeste 13 Norte 0 -- -- 54
2019-10-07 23:00:00 14.9 10 Norte 13 Norte 0 -- -- 58
2019-10-07 22:00:00 19.1 4 Sudeste 14 Oeste 0 -- -- 45
2019-10-07 21:00:00 20.7 2 Sur 12 Noroeste 0 -- -- 40
2019-10-07 20:00:00 23.1 0 Calma 13 Noroeste 0 -- -- 37
2019-10-07 19:00:00 26.8 10 Noroeste 18 Norte 0 -- -- 31
2019-10-07 18:00:00 29 9 Noroeste 18 Noroeste 0 -- -- 28
2019-10-07 17:00:00 29.8 8 Noroeste 32 Sur 0 -- -- 23
2019-10-07 16:00:00 28.1 13 Sur 20 Sur 0 -- -- 30
2019-10-07 15:00:00 26.7 6 Sudeste 18 Sudeste 0 -- -- 32
2019-10-07 14:00:00 24 8 Sur 18 Sudeste 0 -- -- 37
2019-10-07 13:00:00 22.3 7 Sur 13 Este 0 -- -- 38
2019-10-07 12:00:00 21.9 2 Nordeste 10 Sur 0 -- -- 40
2019-10-07 11:00:00 16.5 4 Sur 8 Sur 0 -- -- 59
2019-10-07 10:00:00 13.8 2 Sudeste 6 Noroeste 0 -- -- 63
2019-10-07 09:00:00 8.7 5 Norte 7 Norte 0 -- -- 89
2019-10-07 08:00:00 9.2 3 Sudoeste 4 Sudoeste 0 -- -- 81
2019-10-07 07:00:00 9.9 0 Calma 7 Sudoeste 0 -- -- 76
2019-10-07 06:00:00 10.5 4 Sudoeste 8 Sudeste 0 -- -- 72
2019-10-07 05:00:00 9.7 8 Nordeste 12 Norte 0 -- -- 76
2019-10-07 04:00:00 10.8 12 Nordeste 16 Nordeste 0 -- -- 66
2019-10-07 03:00:00 13.5 3 Noroeste 8 Oeste 0 -- -- 54
2019-10-07 02:00:00 14.5 6 Sudoeste 9 Sudoeste 0 -- -- 52
2019-10-07 01:00:00 13.8 2 Sur 14 Noroeste 0 -- -- 46
2019-10-07 00:00:00 16.2 10 Noroeste 22 Noroeste 0 -- -- 37
2019-10-06 23:00:00 15.9 13 Noroeste 24 Noroeste 0 -- -- 41
2019-10-06 22:00:00 16.2 10 Noroeste 19 Noroeste 0 -- -- 51
2019-10-06 21:00:00 18 13 Noroeste 21 Noroeste 0 -- -- 52
2019-10-06 20:00:00 18.9 10 Noroeste 22 Noroeste 0 -- -- 50
2019-10-06 19:00:00 22.9 12 Noroeste 25 Noroeste 0 -- -- 34
2019-10-06 18:00:00 24.8 15 Noroeste 25 Noroeste 0 -- -- 28
2019-10-06 17:00:00 25 17 Oeste 35 Oeste 0 -- -- 24
2019-10-06 16:00:00 25.1 17 Noroeste 33 Norte 0 -- -- 25
2019-10-06 15:00:00 25.4 10 Sur 22 Sur 0 -- -- 31
2019-10-06 14:00:00 22.9 10 Sur 23 Sur 0 -- -- 43
2019-10-06 13:00:00 22.4 8 Este 23 Sudeste 0 -- -- 51
2019-10-06 12:00:00 20.4 6 Sur 12 Sudeste 0 -- -- 56
2019-10-06 11:00:00 17.2 3 Nordeste 12 Norte 0 -- -- 67
2019-10-06 10:00:00 11.6 8 Nordeste 13 Nordeste 0 -- -- 85
2019-10-06 09:00:00 9.2 8 Norte 14 Norte 0 -- -- 92
2019-10-06 08:00:00 9.1 8 Nordeste 12 Norte 0 -- -- 90
2019-10-06 07:00:00 9.4 9 Nordeste 13 Noroeste 0 -- -- 88
2019-10-06 06:00:00 9.9 8 Norte 15 Norte 0 -- -- 83
2019-10-06 05:00:00 11.2 3 Norte 28 Noroeste 0 -- -- 74
2019-10-06 04:00:00 12.8 6 Oeste 16 Oeste 0 -- -- 68
2019-10-06 03:00:00 12.8 6 Norte 33 Oeste 0 -- -- 63
2019-10-06 02:00:00 12.2 9 Norte 20 Noroeste 0 -- -- 69
2019-10-06 01:00:00 13.7 8 Noroeste 22 Noroeste 0 -- -- 60
2019-10-06 00:00:00 13.7 18 Norte 28 Noroeste 0 -- -- 68
2019-10-05 23:00:00 14.1 11 Norte 23 Noroeste 0 -- -- 64
2019-10-05 22:00:00 14.6 9 Norte 18 Noroeste 0 -- -- 65
2019-10-05 21:00:00 17.5 6 Noroeste 15 Noroeste 0 -- -- 48
2019-10-05 20:00:00 19.2 10 Noroeste 26 Noroeste 0 -- -- 45
2019-10-05 19:00:00 22.7 13 Noroeste 27 Noroeste 0 -- -- 39
2019-10-05 18:00:00 26.4 6 Noroeste 19 Norte 0 -- -- 37
2019-10-05 17:00:00 25.8 6 Sudeste 18 Sur 0 -- -- 43
2019-10-05 16:00:00 24.7 7 Sudeste 17 Sur 0 -- -- 47
2019-10-05 15:00:00 22.9 8 Sudeste 18 Sur 0 -- -- 51
2019-10-05 14:00:00 20.4 7 Sur 16 Sudeste 0 -- -- 58
2019-10-05 13:00:00 18 3 Sudoeste 12 Sur 0 -- -- 68
2019-10-05 12:00:00 13.1 2 Sur 5 Sur 0 -- -- 87
2019-10-05 11:00:00 11.7 2 Sur 4 Sur 0 -- -- 92
2019-10-05 10:00:00 10.6 0 Calma 5 Norte 0 -- -- 94
2019-10-05 09:00:00 7.9 4 Norte 5 Nordeste 0 -- -- 95
2019-10-05 08:00:00 7.4 4 Norte 5 Norte 0 -- -- 95
2019-10-05 07:00:00 8.9 0 Calma 8 Noroeste 0 -- -- 94
2019-10-05 06:00:00 10 4 Noroeste 8 Noroeste 0 -- -- 97
2019-10-05 05:00:00 9.2 4 Noroeste 8 Noroeste 0 -- -- 94
2019-10-05 04:00:00 10.5 2 Sudoeste 10 Sudeste 0 -- -- 91
2019-10-05 03:00:00 10.7 5 Norte 10 Norte 0 -- -- 92
2019-10-05 02:00:00 11.7 4 Norte 8 Norte 0 -- -- 85
2019-10-05 01:00:00 11.8 6 Norte 7 Norte 0 -- -- 87
2019-10-05 00:00:00 12.6 4 Norte 9 Norte 0 -- -- 84
2019-10-04 23:00:00 13.7 3 Norte 6 Noroeste 0 -- -- 79
2019-10-04 22:00:00 15 2 Nordeste 6 Noroeste 0 -- -- 74
2019-10-04 21:00:00 16.5 0 Calma 12 Noroeste 0 -- -- 69
2019-10-04 20:00:00 18.9 9 Norte 19 Norte 0 -- -- 61
2019-10-04 19:00:00 24 14 Norte 22 Norte 0 -- -- 47
2019-10-04 18:00:00 24.6 8 Noroeste 26 Sudeste 0 -- -- 45
2019-10-04 17:00:00 25.2 12 Sudeste 22 Sudeste 0 -- -- 45
2019-10-04 16:00:00 26.8 5 Oeste 23 Sur 0 -- -- 38
2019-10-04 15:00:00 24.7 6 Sudoeste 23 Oeste 0 -- -- 38
2019-10-04 14:00:00 23.3 9 Oeste 19 Norte 0 -- -- 44
2019-10-04 13:00:00 22.2 9 Noroeste 23 Norte 0 -- -- 51
2019-10-04 12:00:00 19.4 14 Norte 21 Norte 0 -- -- 62
2019-10-04 11:00:00 17.5 2 Sur 6 Oeste 0 -- -- 80
2019-10-04 10:00:00 17.3 0 Calma 6 Norte 0 -- -- 85
2019-10-04 09:00:00 10.7 5 Norte 8 Norte 0 -- -- 98
2019-10-04 08:00:00 11.5 3 Sur 5 Sudeste 0 -- -- 97
2019-10-04 07:00:00 12.6 3 Sudeste 6 Norte 0 -- -- 98
2019-10-04 06:00:00 11.6 3 Nordeste 9 Sur 0 -- -- 97
2019-10-04 05:00:00 12.5 3 Sudoeste 6 Norte 0 -- -- 96
2019-10-04 04:00:00 13 6 Norte 11 Norte 0 -- -- 96
2019-10-04 03:00:00 13.1 7 Norte 15 Norte 0 -- -- 93
2019-10-04 02:00:00 13.6 7 Norte 12 Norte 0 -- -- 87
2019-10-04 01:00:00 14.5 4 Norte 7 Norte 0 -- -- 84
2019-10-04 00:00:00 15.1 0 Calma 10 Oeste 0 -- -- 81
2019-10-03 23:00:00 15.7 3 Sur 14 Norte 0 -- -- 78
2019-10-03 22:00:00 16.3 3 Noroeste 27 Noroeste 0 -- -- 72
2019-10-03 21:00:00 17.2 13 Noroeste 35 Noroeste 0 -- -- 68
2019-10-03 20:00:00 19.1 16 Noroeste 33 Noroeste 0 -- -- 60
2019-10-03 19:00:00 23 16 Noroeste 35 Oeste 0 -- -- 40
2019-10-03 18:00:00 25.2 18 Oeste 33 Noroeste 0 -- -- 31
2019-10-03 17:00:00 26.2 14 Oeste 27 Oeste 0 -- -- 30
2019-10-03 16:00:00 26.1 12 Noroeste 23 Noroeste 0 -- -- 24
2019-10-03 15:00:00 25.5 13 Oeste 24 Oeste 0 -- -- 24
2019-10-03 14:00:00 23.2 10 Oeste 23 Oeste 0 -- -- 26
2019-10-03 13:00:00 20.3 4 Sur 12 Sudeste 0 -- -- 47
2019-10-03 12:00:00 17.7 5 Sudeste 13 Sudeste 0 -- -- 56
2019-10-03 11:00:00 14.9 4 Sur 9 Sudeste 0 -- -- 66
2019-10-03 10:00:00 9.9 3 Sur 8 Norte 0 -- -- 78
2019-10-03 09:00:00 5.6 7 Norte 10 Norte 0 -- -- 95
2019-10-03 08:00:00 4.4 6 Norte 8 Norte 0 -- -- 94
2019-10-03 07:00:00 6 3 Norte 5 Norte 0 -- -- 94
2019-10-03 06:00:00 7 3 Noroeste 6 Nordeste 0 -- -- 93
2019-10-03 05:00:00 7.2 2 Sudeste 6 Nordeste 0 -- -- 88
2019-10-03 04:00:00 8.7 2 Oeste 4 Oeste 0 -- -- 86
2019-10-03 03:00:00 10 3 Norte 7 Norte 0 -- -- 82
2019-10-03 02:00:00 10.3 6 Norte 9 Noroeste 0 -- -- 79
2019-10-03 01:00:00 9.2 6 Nordeste 19 Sudeste 0 -- -- 81
2019-10-03 00:00:00 10.2 9 Norte 12 Norte 0 -- -- 74
2019-10-02 23:00:00 10.4 10 Norte 12 Norte 0 -- -- 72
2019-10-02 22:00:00 12.8 6 Norte 9 Noroeste 0 -- -- 64
2019-10-02 21:00:00 15.2 5 Noroeste 10 Norte 0 -- -- 56
2019-10-02 20:00:00 17.8 8 Norte 11 Norte 0 -- -- 50
2019-10-02 19:00:00 22.4 7 Nordeste 17 Norte 0 -- -- 38
2019-10-02 18:00:00 23.8 3 Este 14 Norte 0 -- -- 36
2019-10-02 17:00:00 22.3 5 Sur 16 Norte 0 -- -- 39
2019-10-02 16:00:00 22.3 4 Sudoeste 17 Norte 0 -- -- 39
2019-10-02 15:00:00 20.7 8 Norte 22 Noroeste 0 -- -- 42
2019-10-02 14:00:00 20.5 7 Noroeste 26 Norte 0 -- -- 43
2019-10-02 13:00:00 18.4 11 Norte 21 Norte 0 -- -- 47
2019-10-02 12:00:00 17.8 8 Noroeste 24 Oeste 0 -- -- 48
2019-10-02 11:00:00 17.1 14 Norte 22 Noroeste 0 -- -- 50
2019-10-02 10:00:00 14.2 6 Oeste 10 Oeste 0 -- -- 63
2019-10-02 09:00:00 7.9 4 Norte 13 Oeste 0 -- -- 81
2019-10-02 08:00:00 7.6 4 Oeste 8 Oeste 0 -- -- 86
2019-10-02 07:00:00 8 5 Noroeste 8 Sudoeste 0 -- -- 82
2019-10-02 06:00:00 8.9 4 Noroeste 17 Noroeste 0 -- -- 77
2019-10-02 05:00:00 9.8 9 Oeste 22 Oeste 0 -- -- 74
2019-10-02 04:00:00 11 6 Noroeste 13 Noroeste 0 -- -- 72
2019-10-02 03:00:00 10.9 6 Sudoeste 12 Sudoeste 0 -- -- 77
2019-10-02 02:00:00 11.2 6 Sudoeste 18 Oeste 0 -- -- 75
2019-10-02 01:00:00 11.9 12 Oeste 22 Oeste 0 -- -- 73
2019-10-02 00:00:00 12.5 8 Oeste 25 Noroeste 0 -- -- 70
2019-10-01 23:00:00 13.5 12 Noroeste 30 Noroeste 0 -- -- 68
2019-10-01 22:00:00 14 13 Noroeste 34 Noroeste 0 -- -- 68
2019-10-01 21:00:00 15.1 16 Noroeste 29 Noroeste 0 -- -- 63
2019-10-01 20:00:00 16.6 15 Noroeste 33 Oeste 0 -- -- 57
2019-10-01 19:00:00 19.5 19 Oeste 36 Noroeste 0 -- -- 47
2019-10-01 18:00:00 20.8 18 Oeste 40 Oeste 0 -- -- 45
2019-10-01 17:00:00 21.6 20 Oeste 39 Oeste 0 -- -- 44
2019-10-01 16:00:00 21.4 21 Oeste 40 Oeste 0 -- -- 44
2019-10-01 15:00:00 20 23 Oeste 42 Oeste 0 -- -- 47
2019-10-01 14:00:00 20.1 21 Noroeste 39 Noroeste 0 -- -- 50
2019-10-01 13:00:00 19.3 18 Noroeste 37 Noroeste 0 -- -- 53
2019-10-01 12:00:00 19 18 Noroeste 37 Noroeste 0 -- -- 59
2019-10-01 11:00:00 15.1 12 Oeste 22 Oeste 0 -- -- 80
2019-10-01 10:00:00 15.7 5 Noroeste 18 Oeste 0 -- -- 75
2019-10-01 09:00:00 13.7 8 Noroeste 15 Oeste 0 -- -- 79
2019-10-01 08:00:00 12.9 8 Oeste 15 Noroeste 0 -- -- 81
2019-10-01 07:00:00 12.2 8 Norte 21 Norte 0 -- -- 86
2019-10-01 06:00:00 12.9 10 Noroeste 28 Noroeste 0 -- -- 84
2019-10-01 05:00:00 14.7 13 Noroeste 27 Oeste 0 -- -- 80
2019-10-01 04:00:00 15.8 7 Noroeste 17 Noroeste 0 -- -- 72
2019-10-01 03:00:00 14.6 0 Calma 10 Noroeste 0 -- -- 77
2019-10-01 02:00:00 15.8 7 Oeste 13 Oeste 0 -- -- 72
2019-10-01 01:00:00 17.4 11 Noroeste 21 Noroeste 0 -- -- 70
2019-10-01 00:00:00 16.7 8 Noroeste 23 Noroeste 0 -- -- 80
2019-09-30 23:00:00 18.1 15 Noroeste 26 Oeste 0 -- -- 72
2019-09-30 22:00:00 18.9 8 Oeste 21 Oeste 0 -- -- 64
2019-09-30 21:00:00 20.1 5 Oeste 15 Noroeste 0 -- -- 61
2019-09-30 20:00:00 22.5 8 Noroeste 21 Norte 0 -- -- 54
2019-09-30 19:00:00 24.5 15 Norte 29 Norte 0 -- -- 57
2019-09-30 18:00:00 27.8 7 Sudoeste 13 Sudoeste 0 -- -- 41
2019-09-30 17:00:00 25.5 4 Sur 21 Sudeste 0 -- -- 47
2019-09-30 16:00:00 26.4 7 Sudeste 21 Sudeste 0 -- -- 47
2019-09-30 15:00:00 24.3 10 Sur 22 Sudeste 0 -- -- 53
2019-09-30 14:00:00 23.4 10 Sudeste 21 Sur 0 -- -- 54
2019-09-30 13:00:00 22.2 10 Sur 18 Sur 0 -- -- 59
2019-09-30 12:00:00 20.1 6 Sur 14 Sur 0 -- -- 66
2019-09-30 11:00:00 18.6 5 Sur 10 Sur 0 -- -- 71
2019-09-30 10:00:00 18.9 0 Calma 4 Sur 0 -- -- 72
2019-09-30 09:00:00 12.4 2 Sur 6 Sur 0 -- -- 96
2019-09-30 08:00:00 12.2 0 Calma 13 Noroeste 0 -- -- 95
2019-09-30 07:00:00 12.5 6 Noroeste 15 Noroeste 0 -- -- 94
2019-09-30 06:00:00 13.5 10 Noroeste 14 Noroeste 0 -- -- 93
2019-09-30 05:00:00 13.7 10 Noroeste 12 Noroeste 0 -- -- 92
2019-09-30 04:00:00 12.8 5 Norte 6 Norte 0 -- -- 92
2019-09-30 03:00:00 13.2 5 Norte 8 Noroeste 0 -- -- 90
2019-09-30 02:00:00 14.7 6 Noroeste 8 Oeste 0 -- -- 87
2019-09-30 01:00:00 14.7 3 Nordeste 12 Norte 0 -- -- 88
2019-09-30 00:00:00 15.3 7 Norte 10 Oeste 0 -- -- 85
2019-09-29 23:00:00 16.3 6 Oeste 10 Oeste 0 -- -- 80
2019-09-29 22:00:00 16.5 6 Oeste 30 Noroeste 0 -- -- 82
2019-09-29 21:00:00 17.5 17 Noroeste 28 Noroeste 0 -- -- 81
2019-09-29 20:00:00 18.7 15 Noroeste 31 Noroeste 0 -- -- 76
2019-09-29 19:00:00 21.8 19 Noroeste 37 Noroeste 0 -- -- 58
2019-09-29 18:00:00 24.9 21 Noroeste 38 Noroeste 0 -- -- 46
2019-09-29 17:00:00 26.7 18 Noroeste 36 Noroeste 0 -- -- 41
2019-09-29 16:00:00 26.8 19 Noroeste 33 Noroeste 0 -- -- 37
2019-09-29 15:00:00 26.7 16 Noroeste 38 Noroeste 0 -- -- 38
2019-09-29 14:00:00 26.6 10 Noroeste 22 Noroeste 0 -- -- 37
2019-09-29 13:00:00 23.5 9 Sudeste 16 Sudeste 0 -- -- 35
2019-09-29 12:00:00 21.4 6 Sur 11 Sur 0 -- -- 36
2019-09-29 11:00:00 18.9 7 Sur 12 Sudoeste 0 -- -- 40
2019-09-29 10:00:00 16 2 Sur 7 Norte 0 -- -- 47
2019-09-29 09:00:00 10.8 3 Oeste 9 Norte 0 -- -- 55
2019-09-29 08:00:00 8.4 6 Norte 9 Norte 0 -- -- 70
2019-09-29 07:00:00 8.3 3 Nordeste 8 Norte 0 -- -- 66
2019-09-29 06:00:00 9.9 3 Sur 9 Noroeste 0 -- -- 67
2019-09-29 05:00:00 9 6 Noroeste 12 Norte 0 -- -- 73
2019-09-29 04:00:00 9.4 3 Norte 13 Noroeste 0 -- -- 72
2019-09-29 03:00:00 12.2 5 Noroeste 14 Noroeste 0 -- -- 62
2019-09-29 02:00:00 8.9 3 Norte 10 Norte 0 -- -- 72
2019-09-29 01:00:00 9.1 8 Norte 11 Norte 0 -- -- 72
2019-09-29 00:00:00 11.7 6 Norte 10 Norte 0 -- -- 62
2019-09-28 23:00:00 13.3 0 Calma 9 Norte 0 -- -- 58
2019-09-28 22:00:00 16.4 2 Sudoeste 6 Norte 0 -- -- 47
2019-09-28 21:00:00 17.4 5 Norte 9 Norte 0 -- -- 47
2019-09-28 20:00:00 21.4 6 Este 14 Sudeste 0 -- -- 43
2019-09-28 19:00:00 26 4 Sudeste 12 Este 0 -- -- 34
2019-09-28 18:00:00 25.4 5 Sudeste 13 Sudeste 0 -- -- 35
2019-09-28 17:00:00 24.3 8 Sudeste 18 Sur 0 -- -- 39
2019-09-28 16:00:00 22.4 8 Sur 18 Sudeste 0 -- -- 43
2019-09-28 15:00:00 20.7 5 Sur 14 Sur 0 -- -- 45
2019-09-28 14:00:00 18.1 4 Oeste 17 Sudoeste 0 -- -- 57
2019-09-28 13:00:00 16 5 Sur 12 Sudoeste 0 -- -- 67
2019-09-28 12:00:00 12.3 5 Norte 9 Nordeste 0 -- -- 84
2019-09-28 11:00:00 10.4 3 Norte 6 Norte 0 -- -- 96
2019-09-28 10:00:00 8.8 3 Noroeste 8 Norte 0 -- -- 97
2019-09-28 09:00:00 6.8 6 Norte 10 Norte 0 -- -- 96
2019-09-28 08:00:00 6 5 Norte 10 Norte 0 -- -- 95
2019-09-28 07:00:00 5.2 6 Nordeste 9 Nordeste 0 -- -- 90
2019-09-28 06:00:00 6.5 4 Norte 8 Norte 0 -- -- 88
2019-09-28 05:00:00 8.4 3 Nordeste 10 Noroeste 0 -- -- 86
2019-09-28 04:00:00 9.3 6 Norte 7 Noroeste 0 -- -- 86
2019-09-28 03:00:00 9.6 0 Calma 8 Oeste 0 -- -- 91
2019-09-28 02:00:00 9.8 6 Norte 19 Norte 0 -- -- 90
2019-09-28 01:00:00 11.1 12 Norte 23 Noroeste 0 -- -- 85
2019-09-28 00:00:00 12.7 10 Noroeste 17 Noroeste 0 -- -- 81
2019-09-27 23:00:00 12.2 2 Sur 12 Noroeste 0 -- -- 80
2019-09-27 22:00:00 14 7 Noroeste 17 Noroeste 0 -- -- 72
2019-09-27 21:00:00 14.9 8 Noroeste 21 Oeste 0 -- -- 66
2019-09-27 20:00:00 17.2 10 Noroeste 37 Oeste 0 -- -- 57
2019-09-27 19:00:00 19 24 Noroeste 41 Noroeste 0 -- -- 54
2019-09-27 18:00:00 20.4 20 Noroeste 42 Noroeste 0 -- -- 56
2019-09-27 17:00:00 21.1 27 Noroeste 43 Noroeste 0 -- -- 54
2019-09-27 16:00:00 19.9 24 Noroeste 41 Noroeste 0 -- -- 60
2019-09-27 15:00:00 20.9 21 Noroeste 36 Noroeste 0 -- -- 59
2019-09-27 14:00:00 21.6 19 Noroeste 32 Noroeste 0 -- -- 56
2019-09-27 13:00:00 19.2 12 Noroeste 22 Noroeste 0 -- -- 61
2019-09-27 12:00:00 18.6 10 Oeste 22 Oeste 0 -- -- 63
2019-09-27 11:00:00 17.9 8 Oeste 16 Oeste 0 -- -- 64
2019-09-27 10:00:00 15.8 9 Noroeste 21 Noroeste 0 -- -- 71
2019-09-27 09:00:00 12.1 10 Norte 13 Norte 0 -- -- 82
2019-09-27 08:00:00 11.1 8 Noroeste 17 Noroeste 0 -- -- 84
2019-09-27 07:00:00 9.3 11 Noroeste 16 Noroeste 0 -- -- 90
2019-09-27 06:00:00 8.6 10 Noroeste 15 Noroeste 0 -- -- 94
2019-09-27 05:00:00 9.2 12 Noroeste 15 Norte 0 -- -- 92
2019-09-27 04:00:00 10.3 10 Noroeste 18 Noroeste 0 -- -- 88
2019-09-27 03:00:00 10 8 Norte 24 Norte 0 -- -- 90
2019-09-27 02:00:00 11.4 17 Norte 23 Norte 0 -- -- 84
2019-09-27 01:00:00 12.7 11 Norte 26 Noroeste 0 -- -- 70
2019-09-27 00:00:00 14.9 17 Noroeste 27 Noroeste 0 -- -- 61
2019-09-26 23:00:00 14 12 Noroeste 23 Noroeste 0 -- -- 63
2019-09-26 22:00:00 16.3 13 Oeste 20 Noroeste 0 -- -- 48
2019-09-26 21:00:00 18.4 14 Noroeste 25 Oeste 0 -- -- 43
2019-09-26 20:00:00 20 13 Noroeste 28 Oeste 0 -- -- 37
2019-09-26 19:00:00 23.5 16 Noroeste 36 Noroeste 0 -- -- 29
2019-09-26 18:00:00 25.5 16 Noroeste 31 Noroeste 0 -- -- 23
2019-09-26 17:00:00 26.3 15 Noroeste 32 Oeste 0 -- -- 21
2019-09-26 16:00:00 25.7 18 Oeste 28 Oeste 0 -- -- 21
2019-09-26 15:00:00 25.2 6 Nordeste 21 Sudeste 0 -- -- 36
2019-09-26 14:00:00 22.2 10 Sudeste 18 Sur 0 -- -- 45
2019-09-26 13:00:00 20.6 5 Sudeste 13 Sur 0 -- -- 44
2019-09-26 12:00:00 18.8 6 Sur 12 Sur 0 -- -- 54
2019-09-26 11:00:00 16.8 5 Sur 10 Sudeste 0 -- -- 61
2019-09-26 10:00:00 13.8 5 Norte 8 Norte 0 -- -- 67
2019-09-26 09:00:00 9.7 4 Sur 10 Norte 0 -- -- 86
2019-09-26 08:00:00 8 9 Norte 11 Norte 0 -- -- 93
2019-09-26 07:00:00 8.9 6 Norte 10 Norte 0 -- -- 88
2019-09-26 06:00:00 9.6 6 Noroeste 9 Noroeste 0 -- -- 83
2019-09-26 05:00:00 9.5 3 Norte 11 Norte 0 -- -- 89
2019-09-26 04:00:00 9.6 8 Norte 11 Norte 0 -- -- 87
2019-09-26 03:00:00 10.3 8 Norte 14 Noroeste 0 -- -- 85
2019-09-26 02:00:00 11 7 Noroeste 17 Noroeste 0 -- -- 83
2019-09-26 01:00:00 11.6 6 Noroeste 19 Norte 0 -- -- 80
2019-09-26 00:00:00 11.5 7 Nordeste 14 Norte 0 -- -- 82
2019-09-25 23:00:00 12.4 0 Calma 13 Noroeste 0 -- -- 79
2019-09-25 22:00:00 13.5 3 Norte 14 Noroeste 0 -- -- 74
2019-09-25 21:00:00 14.3 5 Norte 15 Norte 0 -- -- 72
2019-09-25 20:00:00 17.5 8 Noroeste 30 Noroeste 0 -- -- 60
2019-09-25 19:00:00 19.5 17 Noroeste 32 Noroeste 0 -- -- 54
2019-09-25 18:00:00 20.7 18 Norte 29 Noroeste 0 -- -- 50
2019-09-25 17:00:00 21.6 17 Noroeste 36 Norte 0 -- -- 47
2019-09-25 16:00:00 21.7 17 Norte 33 Norte 0 -- -- 47
2019-09-25 15:00:00 20.2 17 Noroeste 36 Norte 0 -- -- 50
2019-09-25 14:00:00 18.9 20 Noroeste 32 Noroeste 0 -- -- 52
2019-09-25 13:00:00 18.6 15 Noroeste 28 Noroeste 0 -- -- 53
2019-09-25 12:00:00 17.1 13 Noroeste 32 Noroeste 0 -- -- 58
2019-09-25 11:00:00 16.1 16 Noroeste 27 Noroeste 0 -- -- 58
2019-09-25 10:00:00 14.8 8 Noroeste 18 Oeste 0 -- -- 63
2019-09-25 09:00:00 11.8 8 Norte 30 Oeste 0 -- -- 75
2019-09-25 08:00:00 10.7 10 Noroeste 19 Noroeste 0 -- -- 78
2019-09-25 07:00:00 10.6 10 Noroeste 23 Noroeste 0 -- -- 78
2019-09-25 06:00:00 10.6 5 Noroeste 18 Oeste 0 -- -- 77
2019-09-25 05:00:00 11.1 10 Noroeste 24 Noroeste 0 -- -- 75
2019-09-25 04:00:00 10.5 6 Noroeste 10 Noroeste 0 -- -- 77
2019-09-25 03:00:00 10.5 4 Este 11 Este 0 -- -- 77
2019-09-25 02:00:00 10.3 4 Este 13 Sudoeste 0 -- -- 79
2019-09-25 01:00:00 10.4 2 Norte 10 Oeste 0 -- -- 77
2019-09-25 00:00:00 11.4 5 Oeste 27 Noroeste 0 -- -- 72
2019-09-24 23:00:00 12.6 8 Oeste 25 Oeste 0 -- -- 66
2019-09-24 22:00:00 13.2 7 Noroeste 20 Noroeste 0 -- -- 69
2019-09-24 21:00:00 14.3 7 Noroeste 29 Oeste 0 -- -- 68
2019-09-24 20:00:00 16.4 16 Oeste 36 Oeste 0 -- -- 59
2019-09-24 19:00:00 19.4 14 Noroeste 35 Oeste 0 -- -- 49
2019-09-24 18:00:00 20.6 19 Noroeste 39 Oeste 0 -- -- 49
2019-09-24 17:00:00 21.8 20 Noroeste 34 Noroeste 0 -- -- 49
2019-09-24 16:00:00 22.1 20 Oeste 35 Oeste 0 -- -- 48
2019-09-24 15:00:00 21 20 Noroeste 38 Oeste 0 -- -- 53
2019-09-24 14:00:00 20.2 15 Noroeste 36 Noroeste 0 -- -- 62
2019-09-24 13:00:00 19.3 8 Sur 17 Sudeste 0 -- -- 65
2019-09-24 12:00:00 19.4 5 Este 13 Este 0 -- -- 65
2019-09-24 11:00:00 16.5 4 Nordeste 9 Sudeste 0 -- -- 72
2019-09-24 10:00:00 13.4 3 Norte 8 Sudoeste 0 -- -- 84
2019-09-24 09:00:00 11.8 5 Sur 8 Sur 0 -- -- 92
2019-09-24 08:00:00 11.6 3 Norte 7 Norte 0 -- -- 93
2019-09-24 07:00:00 11.2 5 Norte 9 Noroeste 0 -- -- 94
2019-09-24 06:00:00 11.5 4 Oeste 6 Sudoeste 0 -- -- 87
2019-09-24 05:00:00 10.4 2 Noroeste 8 Sudoeste 0 -- -- 89
2019-09-24 04:00:00 11 3 Norte 12 Norte 0 -- -- 88
2019-09-24 03:00:00 9.6 11 Norte 14 Norte 0 -- -- 91
2019-09-24 02:00:00 10.6 5 Norte 11 Noroeste 0 -- -- 88
2019-09-24 01:00:00 12.1 4 Noroeste 6 Noroeste 0 -- -- 84
2019-09-24 00:00:00 12.7 4 Sudoeste 7 Este 0 -- -- 82
2019-09-23 23:00:00 13.6 2 Sur 7 Noroeste 0 -- -- 78
2019-09-23 22:00:00 13.8 0 Calma 13 Norte 0 -- -- 75
2019-09-23 21:00:00 14.8 9 Norte 20 Norte 0 -- -- 73
2019-09-23 20:00:00 16.4 15 Norte 24 Norte 0 -- -- 67
2019-09-23 19:00:00 17.4 19 Norte 25 Norte 0 -- -- 64
2019-09-23 18:00:00 19.7 10 Norte 17 Nordeste 0 -- -- 52
2019-09-23 17:00:00 20.1 6 Este 12 Sudeste 0 -- -- 50
2019-09-23 16:00:00 19.1 7 Sur 16 Sudeste 0 -- -- 51
2019-09-23 15:00:00 18.3 6 Sudeste 17 Sur 0 -- -- 55
2019-09-23 14:00:00 17.1 10 Sur 20 Sur 0 -- -- 58
2019-09-23 13:00:00 15.6 6 Sur 14 Sudeste 0 -- -- 62
2019-09-23 12:00:00 13.9 8 Sur 14 Sudoeste 0 -- -- 71
2019-09-23 11:00:00 13.5 0 Calma 8 Sur 0 -- -- 71
2019-09-23 10:00:00 9.9 4 Sudoeste 6 Sur 0 -- -- 87
2019-09-23 09:00:00 9.3 0 Calma 6 Sur 0 -- -- 90
2019-09-23 08:00:00 8.6 4 Sur 6 Sudeste 0 -- -- 90
2019-09-23 07:00:00 8.5 0 Calma 6 Norte 0 -- -- 90
2019-09-23 06:00:00 9 4 Oeste 7 Oeste 0 -- -- 90
2019-09-23 05:00:00 8.5 4 Norte 6 Oeste 0 -- -- 89
2019-09-23 04:00:00 9.4 4 Oeste 7 Noroeste 0 -- -- 87
2019-09-23 03:00:00 9.5 5 Este 10 Nordeste 0 -- -- 87
2019-09-23 02:00:00 10.1 4 Nordeste 7 Oeste 0 -- -- 83
2019-09-23 01:00:00 11.2 2 Sur 15 Noroeste 0 -- -- 78
2019-09-23 00:00:00 11.9 10 Noroeste 22 Noroeste 0 -- -- 75
2019-09-22 23:00:00 12.3 10 Noroeste 22 Oeste 0 -- -- 72
2019-09-22 22:00:00 12.7 13 Noroeste 22 Noroeste 0 -- -- 68
2019-09-22 21:00:00 13.3 11 Noroeste 20 Oeste 0 -- -- 64
2019-09-22 20:00:00 15.9 12 Noroeste 22 Norte 0 -- -- 55
2019-09-22 19:00:00 18.8 13 Noroeste 24 Oeste 0 -- -- 46
2019-09-22 18:00:00 20.4 13 Noroeste 29 Noroeste 0 -- -- 38
2019-09-22 17:00:00 19 16 Noroeste 31 Noroeste 0 -- -- 42
2019-09-22 16:00:00 20.4 17 Noroeste 28 Noroeste 0 -- -- 43
2019-09-22 15:00:00 18.2 14 Noroeste 27 Noroeste 0 -- -- 46
2019-09-22 14:00:00 16.4 8 Sudoeste 26 Noroeste 0 -- -- 51
2019-09-22 13:00:00 16.5 18 Noroeste 31 Noroeste 0 -- -- 55
2019-09-22 12:00:00 16.6 10 Noroeste 22 Noroeste 0 -- -- 53
2019-09-22 11:00:00 14.8 13 Noroeste 24 Noroeste 0 -- -- 62
2019-09-22 10:00:00 11.5 4 Sudoeste 10 Oeste 0 -- -- 78
2019-09-22 09:00:00 10.7 5 Oeste 19 Oeste 0 -- -- 80
2019-09-22 08:00:00 10.4 7 Noroeste 10 Noroeste 0 -- -- 85
2019-09-22 07:00:00 9 3 Norte 9 Norte 0 -- -- 96
2019-09-22 06:00:00 8.8 3 Nordeste 10 Noroeste 0 -- -- 91
2019-09-22 05:00:00 10.8 3 Sudoeste 14 Oeste 0 -- -- 83
2019-09-22 04:00:00 11.1 4 Sudoeste 11 Este 0 -- -- 81
2019-09-22 03:00:00 9.8 6 Nordeste 20 Oeste 0 -- -- 88
2019-09-22 02:00:00 10.3 7 Norte 26 Noroeste 0 -- -- 88
2019-09-22 01:00:00 11.4 9 Noroeste 22 Oeste 0.4 -- -- 87
2019-09-22 00:00:00 12.3 11 Noroeste 28 Sudoeste 0.8 -- -- 92
2019-09-21 23:00:00 14.4 19 Sur 32 Sur 0 -- -- 97
2019-09-21 22:00:00 14.4 16 Sur 36 Sur 0 -- -- 97
2019-09-21 21:00:00 14.7 10 Sudeste 26 Sur 0.2 -- -- 97
2019-09-21 20:00:00 15.1 14 Sur 38 Sur 0.8 -- -- 95
2019-09-21 19:00:00 15.4 34 Sur 46 Sur 0 -- -- 94
2019-09-21 18:00:00 15.5 25 Sur 45 Sur 0 -- -- 93
2019-09-21 17:00:00 16.2 33 Sur 50 Sudoeste 0 -- -- 87
2019-09-21 16:00:00 15.2 18 Sur 42 Sur 0 -- -- 95
2019-09-21 15:00:00 16 30 Sur 40 Sur 0 -- -- 89
2019-09-21 14:00:00 15.3 25 Sur 36 Sur 0 -- -- 91
2019-09-21 13:00:00 14 24 Sur 34 Sur 0.2 -- -- 96
2019-09-21 12:00:00 14.2 19 Sur 26 Sur 0.4 -- -- 95
2019-09-21 11:00:00 13.9 14 Sur 21 Sur 1.4 -- -- 94
2019-09-21 10:00:00 14.2 14 Sur 18 Sur 0 -- -- 85
2019-09-21 09:00:00 13.5 10 Sudeste 22 Sur 0 -- -- 86
2019-09-21 08:00:00 12.8 9 Sudeste 21 Sur 0 -- -- 85
2019-09-21 07:00:00 12.6 8 Sudeste 22 Sur 0 -- -- 83
2019-09-21 06:00:00 13.6 17 Sur 24 Sur 0 -- -- 80
2019-09-21 05:00:00 14.3 17 Sur 22 Sur 0 -- -- 78
2019-09-21 04:00:00 15.1 5 Sudeste 8 Sudeste 0 -- -- 75
2019-09-21 03:00:00 15 2 Sur 6 Sur 0 -- -- 80
2019-09-21 02:00:00 15.2 6 Sur 16 Sudeste 0 -- -- 79
2019-09-21 01:00:00 15.5 10 Sudeste 15 Sudeste 0 -- -- 80
2019-09-21 00:00:00 17.1 6 Sudeste 12 Este 0 -- -- 68
2019-09-20 23:00:00 18.7 3 Sur 6 Sur 0 -- -- 53
2019-09-20 22:00:00 19.3 5 Sudoeste 18 Sudoeste 0 -- -- 51
2019-09-20 21:00:00 20 14 Sur 24 Sur 0 -- -- 47
2019-09-20 20:00:00 22 15 Sudoeste 37 Sudoeste 0 -- -- 42
2019-09-20 19:00:00 24.8 29 Sur 43 Sur 0 -- -- 34
2019-09-20 18:00:00 25.6 29 Sur 41 Sur 0 -- -- 29
2019-09-20 17:00:00 22.2 15 Sudeste 28 Sudeste 0 -- -- 56
2019-09-20 16:00:00 25 8 Este 19 Sudeste 0 -- -- 49
2019-09-20 15:00:00 23.3 12 Sudeste 22 Sudeste 0 -- -- 55
2019-09-20 14:00:00 23.2 8 Sudeste 18 Sudeste 0 -- -- 56
2019-09-20 13:00:00 22.5 10 Sudeste 23 Sudeste 0 -- -- 58
2019-09-20 12:00:00 21.5 5 Este 15 Sudeste 0 -- -- 60
2019-09-20 11:00:00 18.9 4 Nordeste 10 Este 0 -- -- 69
2019-09-20 10:00:00 18.4 0 Calma 5 Nordeste 0 -- -- 74
2019-09-20 09:00:00 12 2 Oeste 8 Noroeste 0 -- -- 91
2019-09-20 08:00:00 11.2 4 Norte 8 Norte 0 -- -- 90
2019-09-20 07:00:00 11.7 3 Norte 9 Norte 0 -- -- 89
2019-09-20 06:00:00 12.5 6 Norte 8 Norte 0 -- -- 87
2019-09-20 05:00:00 13.5 5 Noroeste 11 Norte 0 -- -- 84
2019-09-20 04:00:00 14.2 8 Noroeste 10 Noroeste 0 -- -- 81
2019-09-20 03:00:00 15 7 Noroeste 9 Norte 0 -- -- 77
2019-09-20 02:00:00 14.9 4 Norte 9 Norte 0 -- -- 77
2019-09-20 01:00:00 14.5 0 Calma 10 Norte 0 -- -- 77
2019-09-20 00:00:00 14.2 8 Norte 12 Norte 0 -- -- 81
2019-09-19 23:00:00 16.3 3 Nordeste 10 Norte 0 -- -- 72
2019-09-19 22:00:00 17.1 9 Norte 15 Noroeste 0 -- -- 68
2019-09-19 21:00:00 17.9 6 Norte 14 Noroeste 0 -- -- 70
2019-09-19 20:00:00 21.3 6 Noroeste 12 Noroeste 0 -- -- 53
2019-09-19 19:00:00 22.9 6 Sudeste 19 Sur 0 -- -- 50
2019-09-19 18:00:00 25.4 9 Sudeste 23 Sudeste 0 -- -- 42
2019-09-19 17:00:00 26 12 Sudeste 24 Sudeste 0 -- -- 42
2019-09-19 16:00:00 25.7 12 Sudeste 23 Sudeste 0 -- -- 43
2019-09-19 15:00:00 25 10 Sudeste 22 Sudeste 0 -- -- 43
2019-09-19 14:00:00 24.1 10 Sudeste 18 Sur 0 -- -- 43
2019-09-19 13:00:00 23 9 Sur 16 Sur 0 -- -- 44
2019-09-19 12:00:00 22.5 5 Sudeste 12 Sudeste 0 -- -- 47
2019-09-19 11:00:00 20.6 6 Sur 9 Sur 0 -- -- 60
2019-09-19 10:00:00 18.7 0 Calma 4 Noroeste 0 -- -- 74
2019-09-19 09:00:00 13 3 Norte 9 Noroeste 0 -- -- 95
2019-09-19 08:00:00 12.6 8 Norte 9 Norte 0 -- -- 97
2019-09-19 07:00:00 12.8 0 Calma 10 Norte 0 -- -- 97
2019-09-19 06:00:00 11.2 8 Norte 10 Norte 0 -- -- 96
2019-09-19 05:00:00 12.6 3 Norte 5 Norte 0 -- -- 92
2019-09-19 04:00:00 15.5 2 Noroeste 8 Noroeste 0 -- -- 85
2019-09-19 03:00:00 15.5 3 Norte 9 Norte 0 -- -- 86
2019-09-19 02:00:00 15.4 8 Norte 12 Norte 0 -- -- 84
2019-09-19 01:00:00 15.4 9 Norte 11 Norte 0 -- -- 81
2019-09-19 00:00:00 16.7 8 Norte 14 Norte 0 -- -- 77
2019-09-18 23:00:00 17 10 Norte 12 Norte 0 -- -- 77
2019-09-18 22:00:00 18.4 7 Norte 19 Norte 0 -- -- 70
2019-09-18 21:00:00 20.4 4 Sudoeste 8 Sur 0 -- -- 63
2019-09-18 20:00:00 22.2 6 Sur 12 Sur 0 -- -- 57
2019-09-18 19:00:00 26.1 4 Sudeste 14 Este 0 -- -- 42
2019-09-18 18:00:00 27.1 4 Sudeste 18 Este 0 -- -- 41
2019-09-18 17:00:00 26.2 5 Este 16 Este 0 -- -- 43
2019-09-18 16:00:00 24.2 5 Sudoeste 14 Este 0 -- -- 43
2019-09-18 15:00:00 22.6 6 Sudeste 13 Sudeste 0 -- -- 52
2019-09-18 14:00:00 21.4 5 Sudoeste 11 Sur 0 -- -- 58
2019-09-18 13:00:00 19.7 6 Sudeste 12 Nordeste 0 -- -- 65
2019-09-18 12:00:00 20.3 7 Nordeste 12 Este 0 -- -- 65
2019-09-18 11:00:00 17.7 4 Sudoeste 6 Sudoeste 0 -- -- 81
2019-09-18 10:00:00 13.9 3 Oeste 11 Nordeste 0 -- -- 91
2019-09-18 09:00:00 11.7 10 Norte 21 Este 0 -- -- 93
2019-09-18 08:00:00 11.7 9 Noroeste 11 Nordeste 0 -- -- 98
2019-09-18 07:00:00 10.9 7 Norte 9 Norte 0 -- -- 96
2019-09-18 06:00:00 12.1 4 Oeste 5 Oeste 0 -- -- 98
2019-09-18 05:00:00 12.4 2 Oeste 8 Norte 0 -- -- 97
2019-09-18 04:00:00 13 4 Nordeste 13 Oeste 0 -- -- 97
2019-09-18 03:00:00 13.7 9 Oeste 19 Oeste 1 -- -- 96
2019-09-18 02:00:00 14.1 8 Noroeste 16 Noroeste 3.6 -- -- 97
2019-09-18 01:00:00 14.2 4 Sudeste 19 Este 3 -- -- 95
2019-09-18 00:00:00 15.5 7 Nordeste 22 Noroeste 0 -- -- 77
2019-09-17 23:00:00 15.7 19 Norte 26 Norte 0.4 -- -- 89
2019-09-17 22:00:00 17.5 10 Sudoeste 21 Oeste 0 -- -- 73
2019-09-17 21:00:00 16.8 5 Norte 15 Noroeste 0 -- -- 71